Time;durP1;ratioP1;P1;durP2;ratioP2;P2;SDS_P1;SDS_P2;PMS_P1;PMS_P2;Temp;Humidity;BMP_temperature;BMP_pressure;BME280_temperature;BME280_humidity;BME280_pressure;Samples;Min_cycle;Max_cycle;Signal;HPM_P1;HPM_P2
2022/10/15 00:00:54;;;;;;;319.90;88.07;;;;;;;;;;4971822;28;20513;-65
2022/10/15 00:03:20;;;;;;;356.73;94.73;;;;;;;;;;4971720;28;20133;-65
2022/10/15 00:05:46;;;;;;;367.00;94.90;;;;;;;;;;4970640;28;20097;-65
2022/10/15 00:08:12;;;;;;;328.17;89.23;;;;;;;;;;4971369;28;20073;-65
2022/10/15 00:10:38;;;;;;;349.97;92.80;;;;;;;;;;4968414;28;20042;-65
2022/10/15 00:13:05;;;;;;;422.87;103.50;;;;;;;;;;4971238;28;20175;-65
2022/10/15 00:15:31;;;;;;;345.80;93.93;;;;;;;;;;4970453;28;20047;-65
2022/10/15 00:17:57;;;;;;;370.00;94.63;;;;;;;;;;4971318;28;20051;-65
2022/10/15 00:20:23;;;;;;;285.27;86.47;;;;;;;;;;4970329;28;20050;-65
2022/10/15 00:22:49;;;;;;;352.07;96.00;;;;;;;;;;4971432;28;20105;-65
2022/10/15 00:25:15;;;;;;;429.70;103.90;;;;;;;;;;4970183;28;20082;-65
2022/10/15 00:27:41;;;;;;;311.13;87.37;;;;;;;;;;4970706;28;20093;-65
2022/10/15 00:30:08;;;;;;;218.23;74.37;;;;;;;;;;4971455;28;20082;-65
2022/10/15 00:32:34;;;;;;;348.20;93.77;;;;;;;;;;4971100;28;20152;-65
2022/10/15 00:35:00;;;;;;;223.33;77.13;;;;;;;;;;4956405;28;20879;-65
2022/10/15 00:37:26;;;;;;;292.60;87.23;;;;;;;;;;4950786;28;20133;-65
2022/10/15 00:39:52;;;;;;;246.13;79.63;;;;;;;;;;4950371;29;20073;-65
2022/10/15 00:42:18;;;;;;;215.50;75.13;;;;;;;;;;4969630;28;20513;-66
2022/10/15 00:44:55;;;;;;;229.37;78.23;;;;;;;;;;4971032;28;20585;-65
2022/10/15 00:47:30;;;;;;;165.43;65.70;;;;;;;;;;4969484;28;20747;-65
2022/10/15 00:49:56;;;;;;;339.87;89.10;;;;;;;;;;4970072;28;20055;-65
2022/10/15 00:52:25;;;;;;;291.67;83.20;;;;;;;;;;4969687;28;20061;-65
2022/10/15 00:54:55;;;;;;;188.83;69.00;;;;;;;;;;4971090;28;20073;-65
2022/10/15 00:57:21;;;;;;;195.97;67.17;;;;;;;;;;4970912;28;20453;-65
2022/10/15 00:59:49;;;;;;;177.20;67.10;;;;;;;;;;4970252;28;20043;-65
2022/10/15 01:02:17;;;;;;;238.50;74.47;;;;;;;;;;4970817;28;20053;-65
2022/10/15 01:04:43;;;;;;;143.73;61.93;;;;;;;;;;4970962;28;20061;-65
2022/10/15 01:07:09;;;;;;;190.53;72.03;;;;;;;;;;4970921;28;20054;-65
2022/10/15 01:09:35;;;;;;;252.47;82.63;;;;;;;;;;4970931;28;20039;-65
2022/10/15 01:12:02;;;;;;;262.40;78.47;;;;;;;;;;4968227;28;20133;-65
2022/10/15 01:14:51;;;;;;;161.43;62.30;;;;;;;;;;4969939;28;20505;-65
2022/10/15 01:17:28;;;;;;;207.00;73.77;;;;;;;;;;4970253;28;20053;-65
2022/10/15 01:20:06;;;;;;;214.60;71.80;;;;;;;;;;4969889;28;20046;-65
2022/10/15 01:22:38;;;;;;;226.57;75.03;;;;;;;;;;4970655;28;20527;-65
2022/10/15 01:25:23;;;;;;;182.73;66.03;;;;;;;;;;4970401;28;20109;-65
2022/10/15 01:27:54;;;;;;;247.77;80.53;;;;;;;;;;4969582;28;20051;-65
2022/10/15 01:30:28;;;;;;;179.00;65.27;;;;;;;;;;4968867;28;20050;-65
2022/10/15 01:33:04;;;;;;;161.00;62.33;;;;;;;;;;4970152;28;20054;-65
2022/10/15 01:35:33;;;;;;;185.00;66.07;;;;;;;;;;4969996;28;20051;-65
2022/10/15 01:38:08;;;;;;;155.03;59.63;;;;;;;;;;4969743;28;20122;-65
2022/10/15 01:40:45;;;;;;;170.17;62.67;;;;;;;;;;4969867;28;20146;-65
2022/10/15 01:43:14;;;;;;;146.83;56.47;;;;;;;;;;4970057;28;20409;-65
2022/10/15 01:45:44;;;;;;;149.60;56.63;;;;;;;;;;4968783;28;20445;-65
2022/10/15 01:48:12;;;;;;;172.07;61.67;;;;;;;;;;4969590;28;20050;-65
2022/10/15 01:50:40;;;;;;;163.47;57.77;;;;;;;;;;4969949;28;20043;-65
2022/10/15 01:53:07;;;;;;;140.60;56.70;;;;;;;;;;4969899;28;20039;-65
2022/10/15 01:55:34;;;;;;;133.20;53.23;;;;;;;;;;4969736;28;20054;-65
2022/10/15 01:58:01;;;;;;;139.50;54.37;;;;;;;;;;4969935;28;20412;-65
2022/10/15 02:00:27;;;;;;;153.27;54.67;;;;;;;;;;4969727;28;20050;-66
2022/10/15 02:02:53;;;;;;;124.37;50.40;;;;;;;;;;4969991;28;20097;-65
2022/10/15 02:05:26;;;;;;;142.53;54.10;;;;;;;;;;4969113;28;20054;-65
2022/10/15 02:07:52;;;;;;;135.63;52.40;;;;;;;;;;4969580;28;20082;-65
2022/10/15 02:10:30;;;;;;;104.30;45.27;;;;;;;;;;4968549;28;20716;-65
2022/10/15 02:13:02;;;;;;;153.87;55.13;;;;;;;;;;4969970;28;20146;-65
2022/10/15 02:15:36;;;;;;;137.43;52.27;;;;;;;;;;4968735;28;20489;-65
2022/10/15 02:18:23;;;;;;;107.77;45.10;;;;;;;;;;4969378;28;20046;-65
2022/10/15 02:20:49;;;;;;;107.17;45.23;;;;;;;;;;4969646;28;20097;-64
2022/10/15 02:23:41;;;;;;;93.90;41.40;;;;;;;;;;4969860;28;20093;-65
2022/10/15 02:26:08;;;;;;;122.93;46.93;;;;;;;;;;4969283;28;20134;-65
2022/10/15 02:28:36;;;;;;;113.03;45.03;;;;;;;;;;4969351;28;20043;-65
2022/10/15 02:31:03;;;;;;;93.97;41.70;;;;;;;;;;4969516;28;20055;-65
2022/10/15 02:33:30;;;;;;;114.57;45.70;;;;;;;;;;4970083;28;20050;-65
2022/10/15 02:35:57;;;;;;;111.07;44.70;;;;;;;;;;4969613;28;20055;-65
2022/10/15 02:38:24;;;;;;;137.10;49.53;;;;;;;;;;4969274;28;20046;-65
2022/10/15 02:40:51;;;;;;;130.87;46.97;;;;;;;;;;4969264;28;20043;-65
2022/10/15 02:43:19;;;;;;;73.87;36.53;;;;;;;;;;4969465;28;20105;-66
2022/10/15 02:45:45;;;;;;;122.93;47.17;;;;;;;;;;4969744;28;20046;-65
2022/10/15 02:48:11;;;;;;;105.40;43.40;;;;;;;;;;4969378;28;20050;-65
2022/10/15 02:50:37;;;;;;;131.40;49.00;;;;;;;;;;4969570;28;20047;-65
2022/10/15 02:53:03;;;;;;;136.27;48.43;;;;;;;;;;4969182;28;20082;-65
2022/10/15 02:55:29;;;;;;;145.43;49.67;;;;;;;;;;4968317;28;20524;-65
2022/10/15 02:57:55;;;;;;;129.70;48.30;;;;;;;;;;4969272;28;20054;-65
2022/10/15 03:00:21;;;;;;;109.57;43.07;;;;;;;;;;4972203;28;20054;-65
2022/10/15 03:02:47;;;;;;;123.80;48.23;;;;;;;;;;4972580;28;20055;-65
2022/10/15 03:05:13;;;;;;;104.43;43.33;;;;;;;;;;4972694;28;20133;-65
2022/10/15 03:07:39;;;;;;;115.67;46.20;;;;;;;;;;4973131;28;20519;-65
2022/10/15 03:10:06;;;;;;;115.77;46.43;;;;;;;;;;4972632;28;20051;-65
2022/10/15 03:12:32;;;;;;;109.03;45.63;;;;;;;;;;4971799;28;20445;-65
2022/10/15 03:14:58;;;;;;;116.67;47.00;;;;;;;;;;4972605;28;20054;-65
2022/10/15 03:17:24;;;;;;;124.70;48.90;;;;;;;;;;4972443;28;20452;-65
2022/10/15 03:19:50;;;;;;;116.30;46.73;;;;;;;;;;4972329;28;20042;-65
2022/10/15 03:22:16;;;;;;;206.83;62.93;;;;;;;;;;4972755;28;20074;-65
2022/10/15 03:24:42;;;;;;;122.43;51.40;;;;;;;;;;4971043;28;20090;-65
2022/10/15 03:27:08;;;;;;;169.70;58.33;;;;;;;;;;4972479;28;20047;-65
2022/10/15 03:29:34;;;;;;;192.50;63.53;;;;;;;;;;4971304;28;20062;-65
2022/10/15 03:32:00;;;;;;;144.90;54.47;;;;;;;;;;4971638;28;20046;-65
2022/10/15 03:34:26;;;;;;;185.20;62.93;;;;;;;;;;4970968;28;20625;-65
2022/10/15 03:36:52;;;;;;;126.63;53.00;;;;;;;;;;4972355;28;20098;-65
2022/10/15 03:39:18;;;;;;;149.97;58.90;;;;;;;;;;4972057;28;20413;-65
2022/10/15 03:41:44;;;;;;;143.00;57.00;;;;;;;;;;4971723;28;20042;-65
2022/10/15 03:44:10;;;;;;;166.10;60.37;;;;;;;;;;4970831;28;20537;-65
2022/10/15 03:46:36;;;;;;;176.63;64.63;;;;;;;;;;4972238;28;20130;-65
2022/10/15 03:49:02;;;;;;;154.20;61.40;;;;;;;;;;4972008;28;20133;-65
2022/10/15 03:51:28;;;;;;;172.13;62.10;;;;;;;;;;4970349;28;20054;-65
2022/10/15 03:53:54;;;;;;;160.37;61.63;;;;;;;;;;4971686;28;20047;-65
2022/10/15 03:56:20;;;;;;;148.93;60.50;;;;;;;;;;4971960;28;20051;-65
2022/10/15 03:58:46;;;;;;;179.27;67.63;;;;;;;;;;4970326;28;20042;-65
2022/10/15 04:01:14;;;;;;;193.47;67.67;;;;;;;;;;4971484;28;20077;-65
2022/10/15 04:03:40;;;;;;;158.03;62.50;;;;;;;;;;4971438;28;20051;-65
2022/10/15 04:06:06;;;;;;;158.43;63.53;;;;;;;;;;4971644;28;20559;-65
2022/10/15 04:08:32;;;;;;;146.73;62.17;;;;;;;;;;4971539;28;20046;-65
2022/10/15 04:10:58;;;;;;;206.83;73.17;;;;;;;;;;4970438;28;20043;-65
2022/10/15 04:13:25;;;;;;;227.07;72.90;;;;;;;;;;4969859;28;20047;-65
2022/10/15 04:15:51;;;;;;;228.77;76.97;;;;;;;;;;4971516;28;20431;-65
2022/10/15 04:18:19;;;;;;;227.77;74.07;;;;;;;;;;4971695;28;20050;-64
2022/10/15 04:20:45;;;;;;;255.87;77.80;;;;;;;;;;4969853;28;20051;-65
2022/10/15 04:23:11;;;;;;;204.13;73.60;;;;;;;;;;4984284;28;20411;-65
2022/10/15 04:25:37;;;;;;;182.70;71.67;;;;;;;;;;4990641;28;20045;-65
2022/10/15 04:28:03;;;;;;;229.67;75.27;;;;;;;;;;4989959;28;20169;-65
2022/10/15 04:30:30;;;;;;;192.90;73.57;;;;;;;;;;4990159;28;20057;-65
2022/10/15 04:32:56;;;;;;;197.67;72.27;;;;;;;;;;4979199;28;20054;-65
2022/10/15 04:35:22;;;;;;;224.23;74.87;;;;;;;;;;4971465;28;20051;-65
2022/10/15 04:37:48;;;;;;;218.37;73.60;;;;;;;;;;4970986;28;20039;-65
2022/10/15 04:40:14;;;;;;;268.93;81.60;;;;;;;;;;4971378;28;20173;-64
2022/10/15 04:42:40;;;;;;;224.03;75.67;;;;;;;;;;4979405;28;20555;-65
2022/10/15 04:45:06;;;;;;;230.30;76.77;;;;;;;;;;4990255;28;20188;-65
2022/10/15 04:47:32;;;;;;;189.50;69.10;;;;;;;;;;4990721;28;20073;-65
2022/10/15 04:49:59;;;;;;;222.07;71.90;;;;;;;;;;4989478;28;20053;-65
2022/10/15 04:52:25;;;;;;;192.63;67.73;;;;;;;;;;4982202;28;20059;-65
2022/10/15 04:54:51;;;;;;;233.40;75.77;;;;;;;;;;4971121;28;20050;-65
2022/10/15 04:57:17;;;;;;;256.40;77.67;;;;;;;;;;4970766;28;20043;-64
2022/10/15 04:59:43;;;;;;;193.43;69.43;;;;;;;;;;4970680;28;20042;-65
2022/10/15 05:02:10;;;;;;;219.27;71.77;;;;;;;;;;4970915;28;20055;-65
2022/10/15 05:04:36;;;;;;;281.40;81.43;;;;;;;;;;4969426;28;20063;-66
2022/10/15 05:07:02;;;;;;;242.17;77.90;;;;;;;;;;4970793;28;20102;-66
2022/10/15 05:09:28;;;;;;;266.57;82.97;;;;;;;;;;4969499;28;20051;-66
2022/10/15 05:11:54;;;;;;;285.70;81.00;;;;;;;;;;4971475;28;20491;-66
2022/10/15 05:14:21;;;;;;;220.53;74.03;;;;;;;;;;4969554;28;20047;-66
2022/10/15 05:16:47;;;;;;;173.33;67.43;;;;;;;;;;4969715;28;20535;-66
2022/10/15 05:19:13;;;;;;;210.33;73.90;;;;;;;;;;4989740;28;20082;-66
2022/10/15 05:21:39;;;;;;;266.67;83.30;;;;;;;;;;4989668;28;20485;-65
2022/10/15 05:24:05;;;;;;;202.33;71.57;;;;;;;;;;4989597;28;20088;-65
2022/10/15 05:26:32;;;;;;;258.03;79.63;;;;;;;;;;4989437;28;20145;-65
2022/10/15 05:28:58;;;;;;;228.00;79.00;;;;;;;;;;4981537;28;20500;-65
2022/10/15 05:31:26;;;;;;;224.57;75.77;;;;;;;;;;4972784;28;20145;-65
2022/10/15 05:33:53;;;;;;;199.23;71.13;;;;;;;;;;4969376;28;20054;-65
2022/10/15 05:36:26;;;;;;;235.43;76.97;;;;;;;;;;4970372;28;20043;-65
2022/10/15 05:38:53;;;;;;;197.98;73.63;;;;;;;;;;4969634;28;20083;-65
2022/10/15 05:41:19;;;;;;;160.07;65.20;;;;;;;;;;4970539;28;20046;-65
2022/10/15 05:43:46;;;;;;;190.17;68.97;;;;;;;;;;4970184;28;20687;-65
2022/10/15 05:46:12;;;;;;;177.20;69.17;;;;;;;;;;4970542;28;20038;-65
2022/10/15 05:48:38;;;;;;;166.73;68.13;;;;;;;;;;4968540;28;20051;-64
2022/10/15 05:51:05;;;;;;;188.47;70.93;;;;;;;;;;4968742;28;20051;-65
2022/10/15 05:53:31;;;;;;;199.27;68.47;;;;;;;;;;4970071;28;20046;-66
2022/10/15 05:55:57;;;;;;;209.50;72.07;;;;;;;;;;4969042;28;20129;-65
2022/10/15 05:58:27;;;;;;;169.87;65.63;;;;;;;;;;4970247;28;20050;-64
2022/10/15 06:00:54;;;;;;;167.30;67.67;;;;;;;;;;4968769;28;20047;-64
2022/10/15 06:03:20;;;;;;;199.90;74.33;;;;;;;;;;4969881;28;20045;-64
2022/10/15 06:05:46;;;;;;;229.60;74.97;;;;;;;;;;4969581;28;20066;-64
2022/10/15 06:08:12;;;;;;;187.50;69.43;;;;;;;;;;4969896;28;20051;-64
2022/10/15 06:10:38;;;;;;;191.53;69.63;;;;;;;;;;4966265;28;20057;-65
2022/10/15 06:13:04;;;;;;;141.80;60.50;;;;;;;;;;4968133;28;20106;-64
2022/10/15 06:15:31;;;;;;;183.00;67.03;;;;;;;;;;4968521;28;20050;-64
2022/10/15 06:17:57;;;;;;;195.93;70.47;;;;;;;;;;4968528;28;20078;-64
2022/10/15 06:20:23;;;;;;;148.53;63.37;;;;;;;;;;4968645;28;20089;-64
2022/10/15 06:22:49;;;;;;;185.63;68.07;;;;;;;;;;4968962;28;20591;-64
2022/10/15 06:25:15;;;;;;;172.40;64.20;;;;;;;;;;4968999;28;20496;-64
2022/10/15 06:27:41;;;;;;;151.70;61.33;;;;;;;;;;4969017;28;20412;-65
2022/10/15 06:30:08;;;;;;;172.97;65.47;;;;;;;;;;4969187;28;20063;-64
2022/10/15 06:32:34;;;;;;;198.57;71.00;;;;;;;;;;4969510;28;20054;-65
2022/10/15 06:35:00;;;;;;;200.60;71.87;;;;;;;;;;4969525;28;20051;-65
2022/10/15 06:37:28;;;;;;;194.60;69.47;;;;;;;;;;4973110;28;20089;-65
2022/10/15 06:39:54;;;;;;;190.47;70.07;;;;;;;;;;4971759;28;20082;-65
2022/10/15 06:42:20;;;;;;;164.53;65.03;;;;;;;;;;4973197;28;20081;-65
2022/10/15 06:44:46;;;;;;;224.13;75.33;;;;;;;;;;4971011;28;20448;-65
2022/10/15 06:47:12;;;;;;;174.10;68.03;;;;;;;;;;4972938;28;20062;-65
2022/10/15 06:49:38;;;;;;;173.07;67.03;;;;;;;;;;4972582;28;20077;-65
2022/10/15 06:52:04;;;;;;;169.80;66.07;;;;;;;;;;4971287;28;20566;-65
2022/10/15 06:54:30;;;;;;;233.63;77.43;;;;;;;;;;4972120;28;20466;-65
2022/10/15 06:56:56;;;;;;;189.97;71.43;;;;;;;;;;4972050;28;20145;-65
2022/10/15 06:59:22;;;;;;;200.13;72.40;;;;;;;;;;4972725;28;20046;-65
2022/10/15 07:01:48;;;;;;;174.23;68.53;;;;;;;;;;4972248;28;20051;-65
2022/10/15 07:04:14;;;;;;;240.70;80.03;;;;;;;;;;4971946;28;20339;-65
2022/10/15 07:06:40;;;;;;;196.17;74.37;;;;;;;;;;4963736;28;20038;-65
2022/10/15 07:09:06;;;;;;;193.13;71.30;;;;;;;;;;4963218;28;20049;-65
2022/10/15 07:11:33;;;;;;;160.87;65.87;;;;;;;;;;4962436;28;20057;-65
2022/10/15 07:13:58;;;;;;;170.77;67.40;;;;;;;;;;4959953;28;20047;-65
2022/10/15 07:16:25;;;;;;;196.90;74.10;;;;;;;;;;4960727;28;20054;-65
2022/10/15 07:18:51;;;;;;;179.47;69.37;;;;;;;;;;4960238;28;20050;-65
2022/10/15 07:21:17;;;;;;;170.80;67.67;;;;;;;;;;4962395;28;20437;-65
2022/10/15 07:23:43;;;;;;;166.30;69.63;;;;;;;;;;4960676;28;20044;-65
2022/10/15 07:26:09;;;;;;;212.93;74.20;;;;;;;;;;4960148;28;20061;-65
2022/10/15 07:28:35;;;;;;;167.43;69.00;;;;;;;;;;4962184;28;20043;-65
2022/10/15 07:31:02;;;;;;;154.63;65.03;;;;;;;;;;4960243;28;20276;-65
2022/10/15 07:33:28;;;;;;;155.50;65.03;;;;;;;;;;4960409;28;20051;-65
2022/10/15 07:35:54;;;;;;;170.03;69.77;;;;;;;;;;4961704;28;20242;-65
2022/10/15 07:38:21;;;;;;;159.77;64.93;;;;;;;;;;4960263;28;20043;-65
2022/10/15 07:40:47;;;;;;;150.97;65.23;;;;;;;;;;4960429;28;20106;-65
2022/10/15 07:43:14;;;;;;;152.80;65.47;;;;;;;;;;4962130;28;20043;-65
2022/10/15 07:45:40;;;;;;;152.07;63.87;;;;;;;;;;4959783;28;20055;-65
2022/10/15 07:48:06;;;;;;;153.97;64.97;;;;;;;;;;4959201;28;20054;-65
2022/10/15 07:50:32;;;;;;;178.77;70.03;;;;;;;;;;4961700;28;20054;-65
2022/10/15 07:52:58;;;;;;;164.77;64.83;;;;;;;;;;4959713;28;20110;-64
2022/10/15 07:55:24;;;;;;;136.60;60.30;;;;;;;;;;4960141;28;20051;-65
2022/10/15 07:57:50;;;;;;;152.33;64.37;;;;;;;;;;4962242;28;20047;-65
2022/10/15 08:00:16;;;;;;;168.63;65.50;;;;;;;;;;4960372;28;20394;-65
2022/10/15 08:02:42;;;;;;;170.50;69.00;;;;;;;;;;4961710;28;20093;-65
2022/10/15 08:05:08;;;;;;;162.60;63.90;;;;;;;;;;4961757;28;20054;-65
2022/10/15 08:07:35;;;;;;;172.43;66.47;;;;;;;;;;4958439;28;20049;-65
2022/10/15 08:10:01;;;;;;;145.53;62.40;;;;;;;;;;4961761;28;20047;-65
2022/10/15 08:12:27;;;;;;;161.60;64.13;;;;;;;;;;4961391;28;20050;-65
2022/10/15 08:14:53;;;;;;;179.07;67.63;;;;;;;;;;4959644;28;20121;-66
2022/10/15 08:17:19;;;;;;;173.83;67.30;;;;;;;;;;4961885;28;20134;-64
2022/10/15 08:19:45;;;;;;;154.03;63.27;;;;;;;;;;4961070;28;20043;-64
2022/10/15 08:22:11;;;;;;;164.33;63.90;;;;;;;;;;4959629;28;20472;-65
2022/10/15 08:24:37;;;;;;;176.10;65.60;;;;;;;;;;4961355;28;20039;-66
2022/10/15 08:27:03;;;;;;;132.93;61.67;;;;;;;;;;4951073;29;20094;-65
2022/10/15 08:29:29;;;;;;;165.07;64.97;;;;;;;;;;4956670;28;20931;-65
2022/10/15 08:31:55;;;;;;;177.03;66.93;;;;;;;;;;4959490;28;20047;-65
2022/10/15 08:34:21;;;;;;;179.43;68.53;;;;;;;;;;4961120;28;20052;-65
2022/10/15 08:36:47;;;;;;;151.07;59.60;;;;;;;;;;4964069;28;20043;-65
2022/10/15 08:39:13;;;;;;;190.33;64.83;;;;;;;;;;4959893;28;20425;-65
2022/10/15 08:41:44;;;;;;;191.13;64.50;;;;;;;;;;4958251;28;20629;-65
2022/10/15 08:44:24;;;;;;;194.87;62.20;;;;;;;;;;4962888;28;20504;-65
2022/10/15 08:46:53;;;;;;;204.27;67.43;;;;;;;;;;4970618;28;20053;-64
2022/10/15 08:49:40;;;;;;;208.70;67.23;;;;;;;;;;4970828;28;20043;-64
2022/10/15 08:52:13;;;;;;;185.43;61.67;;;;;;;;;;4970629;28;20051;-65
2022/10/15 08:54:39;;;;;;;220.88;65.45;;;;;;;;;;4970143;28;20050;-65
2022/10/15 08:57:10;;;;;;;220.13;70.70;;;;;;;;;;4969942;28;20055;-63
2022/10/15 08:59:40;;;;;;;194.17;63.00;;;;;;;;;;4970254;28;20082;-64
2022/10/15 09:02:17;;;;;;;204.77;64.73;;;;;;;;;;4970537;28;20090;-64
2022/10/15 09:04:53;;;;;;;190.60;60.53;;;;;;;;;;4970434;28;20165;-64
2022/10/15 09:07:23;;;;;;;156.97;56.27;;;;;;;;;;4970324;28;20102;-64
2022/10/15 09:09:57;;;;;;;146.67;53.43;;;;;;;;;;4970221;28;20043;-66
2022/10/15 09:12:44;;;;;;;132.77;48.57;;;;;;;;;;4970329;28;20445;-65
2022/10/15 09:15:13;;;;;;;140.00;51.27;;;;;;;;;;4970286;28;20043;-65
2022/10/15 09:17:41;;;;;;;132.43;49.10;;;;;;;;;;4969829;28;20504;-65
2022/10/15 09:20:07;;;;;;;132.53;48.53;;;;;;;;;;4969890;28;20050;-65
2022/10/15 09:22:33;;;;;;;140.10;49.07;;;;;;;;;;4961119;28;20157;-64
2022/10/15 09:25:07;;;;;;;111.73;43.60;;;;;;;;;;4960375;28;20405;-65
2022/10/15 09:27:38;;;;;;;83.65;37.33;;;;;;;;;;4963161;28;20049;-65
2022/10/15 09:30:06;;;;;;;107.10;41.33;;;;;;;;;;4956768;28;20098;-65
2022/10/15 09:32:48;;;;;;;74.33;35.77;;;;;;;;;;4957653;28;20051;-65
2022/10/15 09:35:14;;;;;;;83.47;32.03;;;;;;;;;;4960007;28;20400;-65
2022/10/15 09:37:59;;;;;;;82.73;34.70;;;;;;;;;;4965226;28;20504;-64
2022/10/15 09:40:36;;;;;;;77.43;32.53;;;;;;;;;;4969117;28;20396;-64
2022/10/15 09:43:04;;;;;;;84.00;35.20;;;;;;;;;;4967421;28;20493;-65
2022/10/15 09:45:30;;;;;;;62.23;29.67;;;;;;;;;;4952616;28;20043;-65
2022/10/15 09:47:59;;;;;;;72.90;32.43;;;;;;;;;;4950199;29;20055;-65
2022/10/15 09:50:28;;;;;;;67.10;29.67;;;;;;;;;;4949802;29;20062;-64
2022/10/15 09:53:10;;;;;;;65.37;29.73;;;;;;;;;;4950206;29;20047;-64
2022/10/15 09:55:42;;;;;;;56.53;28.53;;;;;;;;;;4961893;28;20468;-65
2022/10/15 09:58:12;;;;;;;58.57;29.03;;;;;;;;;;4957714;28;20425;-65
2022/10/15 10:00:50;;;;;;;66.97;30.40;;;;;;;;;;4960368;28;20042;-65
2022/10/15 10:03:16;;;;;;;54.33;28.87;;;;;;;;;;4967448;28;20474;-64
2022/10/15 10:05:44;;;;;;;66.90;30.43;;;;;;;;;;4969281;28;20046;-64
2022/10/15 10:08:21;;;;;;;55.60;28.20;;;;;;;;;;4969294;28;20576;-64
2022/10/15 10:10:55;;;;;;;56.00;27.60;;;;;;;;;;4972662;28;20047;-64
2022/10/15 10:13:26;;;;;;;45.30;25.83;;;;;;;;;;4973411;28;20101;-64
2022/10/15 10:15:53;;;;;;;50.60;26.33;;;;;;;;;;4972972;28;20049;-64
2022/10/15 10:18:20;;;;;;;37.73;23.53;;;;;;;;;;4973200;28;20050;-64
2022/10/15 10:20:52;;;;;;;34.60;21.93;;;;;;;;;;4968863;28;20126;-63
2022/10/15 10:23:22;;;;;;;31.83;21.07;;;;;;;;;;4983001;28;20047;-64
2022/10/15 10:25:49;;;;;;;32.47;21.80;;;;;;;;;;4977002;28;20057;-63
2022/10/15 10:28:19;;;;;;;35.13;23.10;;;;;;;;;;4969133;28;20039;-64
2022/10/15 10:30:48;;;;;;;29.07;19.70;;;;;;;;;;4963166;28;20531;-64
2022/10/15 10:33:15;;;;;;;31.47;20.63;;;;;;;;;;4963501;28;20058;-64
2022/10/15 10:35:47;;;;;;;28.77;19.83;;;;;;;;;;4963015;28;20174;-64
2022/10/15 10:38:18;;;;;;;25.80;19.08;;;;;;;;;;4960807;28;20089;-65
2022/10/15 10:40:49;;;;;;;28.73;19.80;;;;;;;;;;4954729;28;20076;-64
2022/10/15 10:43:15;;;;;;;25.87;19.07;;;;;;;;;;4962862;28;20055;-64
2022/10/15 10:46:00;;;;;;;27.90;18.77;;;;;;;;;;4953208;28;20138;-64
2022/10/15 10:48:28;;;;;;;26.67;18.00;;;;;;;;;;4952909;28;20114;-64
2022/10/15 10:51:02;;;;;;;31.43;20.40;;;;;;;;;;4952771;28;20347;-64
2022/10/15 10:53:28;;;;;;;29.17;19.53;;;;;;;;;;4952809;28;20058;-64
2022/10/15 10:55:54;;;;;;;30.20;19.50;;;;;;;;;;4959038;28;20101;-64
2022/10/15 10:58:22;;;;;;;30.70;20.10;;;;;;;;;;4971627;28;20039;-64
2022/10/15 11:00:49;;;;;;;23.57;18.40;;;;;;;;;;4971829;28;20050;-64
2022/10/15 11:03:15;;;;;;;23.60;17.53;;;;;;;;;;4974609;28;20514;-64
2022/10/15 11:05:41;;;;;;;27.37;17.70;;;;;;;;;;4990950;28;20057;-64
2022/10/15 11:08:14;;;;;;;23.30;17.57;;;;;;;;;;4985829;28;20054;-64
2022/10/15 11:10:58;;;;;;;28.03;20.17;;;;;;;;;;4971734;28;20496;-64
2022/10/15 11:13:27;;;;;;;22.43;17.13;;;;;;;;;;4972460;28;20425;-64
2022/10/15 11:15:53;;;;;;;25.03;16.60;;;;;;;;;;4971848;28;20090;-64
2022/10/15 11:18:33;;;;;;;23.10;16.57;;;;;;;;;;4972329;28;20065;-64
2022/10/15 11:21:01;;;;;;;21.77;16.77;;;;;;;;;;4970840;28;20513;-64
2022/10/15 11:23:39;;;;;;;24.97;16.83;;;;;;;;;;4971685;28;20047;-64
2022/10/15 11:26:20;;;;;;;26.20;17.77;;;;;;;;;;4971964;28;20047;-64
2022/10/15 11:28:55;;;;;;;23.97;17.53;;;;;;;;;;4971613;28;20055;-64
2022/10/15 11:31:32;;;;;;;27.50;18.33;;;;;;;;;;4971417;28;20141;-64
2022/10/15 11:34:10;;;;;;;26.80;18.53;;;;;;;;;;4968843;28;20069;-65
2022/10/15 11:36:48;;;;;;;29.67;18.70;;;;;;;;;;4972076;28;20051;-64
2022/10/15 11:39:22;;;;;;;28.87;19.20;;;;;;;;;;4971629;28;20057;-64
2022/10/15 11:41:48;;;;;;;;;;;;;;;;;;4971706;28;20113;-64
2022/10/15 11:44:29;;;;;;;25.83;18.03;;;;;;;;;;4971294;28;20380;-64
2022/10/15 11:46:58;;;;;;;26.80;18.10;;;;;;;;;;4970284;28;20080;-64
2022/10/15 11:49:43;;;;;;;28.60;19.10;;;;;;;;;;4971869;28;20050;-64
2022/10/15 11:52:15;;;;;;;26.33;17.87;;;;;;;;;;4971655;28;20055;-64
2022/10/15 11:54:44;;;;;;;28.20;18.30;;;;;;;;;;4969748;28;20057;-64
2022/10/15 11:57:13;;;;;;;25.23;18.20;;;;;;;;;;4970600;28;20042;-64
2022/10/15 11:59:38;;;;;;;28.93;19.07;;;;;;;;;;4970336;28;20039;-64
2022/10/15 12:02:14;;;;;;;26.60;17.93;;;;;;;;;;4971182;28;20620;-64
2022/10/15 12:04:55;;;;;;;29.03;18.17;;;;;;;;;;4971647;28;20085;-64
2022/10/15 12:07:27;;;;;;;29.83;19.43;;;;;;;;;;4971303;28;20051;-65
2022/10/15 12:09:59;;;;;;;29.10;18.48;;;;;;;;;;4969008;28;20047;-64
2022/10/15 12:12:32;;;;;;;34.90;21.08;;;;;;;;;;4970197;28;20161;-64
2022/10/15 12:15:13;;;;;;;36.10;20.23;;;;;;;;;;4971064;28;20355;-65
2022/10/15 12:17:45;;;;;;;41.83;23.77;;;;;;;;;;4970546;28;20409;-65
2022/10/15 12:20:13;;;;;;;44.60;23.05;;;;;;;;;;4970851;28;20421;-65
2022/10/15 12:22:52;;;;;;;45.27;23.33;;;;;;;;;;4970263;28;20070;-65
2022/10/15 12:25:33;;;;;;;45.50;23.87;;;;;;;;;;4970774;28;20098;-65
2022/10/15 12:28:13;;;;;;;54.10;24.97;;;;;;;;;;4970547;28;20073;-65
2022/10/15 12:30:41;;;;;;;47.00;24.90;;;;;;;;;;4951603;29;20055;-65
2022/10/15 12:33:22;;;;;;;57.13;26.47;;;;;;;;;;4957439;28;20505;-65
2022/10/15 12:35:53;;;;;;;64.60;27.90;;;;;;;;;;4970889;28;20421;-65
2022/10/15 12:38:28;;;;;;;59.70;26.93;;;;;;;;;;4970066;28;20420;-65
2022/10/15 12:40:56;;;;;;;65.27;28.60;;;;;;;;;;4970856;28;20057;-65
2022/10/15 12:43:23;;;;;;;72.90;28.83;;;;;;;;;;4969377;28;20413;-65
2022/10/15 12:45:51;;;;;;;53.37;25.80;;;;;;;;;;4969651;28;20057;-65
2022/10/15 12:48:19;;;;;;;57.67;26.83;;;;;;;;;;4970496;28;20047;-65
2022/10/15 12:50:45;;;;;;;73.07;28.70;;;;;;;;;;4970119;28;20046;-65
2022/10/15 12:53:37;;;;;;;59.40;25.87;;;;;;;;;;4968686;28;20078;-65
2022/10/15 12:56:09;;;;;;;66.10;26.03;;;;;;;;;;4960034;28;20090;-65
2022/10/15 12:58:36;;;;;;;72.70;27.70;;;;;;;;;;4969170;28;20054;-65
2022/10/15 13:01:25;;;;;;;52.40;23.37;;;;;;;;;;4970534;28;20042;-65
2022/10/15 13:03:53;;;;;;;65.73;27.23;;;;;;;;;;4926758;28;20158;-65
2022/10/15 13:06:22;;;;;;;49.43;23.40;;;;;;;;;;4967050;28;20053;-65
2022/10/15 13:08:51;;;;;;;54.33;22.90;;;;;;;;;;4972503;28;20050;-65
2022/10/15 13:11:22;;;;;;;49.80;21.93;;;;;;;;;;4978961;28;20465;-65
2022/10/15 13:13:49;;;;;;;46.73;21.23;;;;;;;;;;4968976;28;20093;-65
2022/10/15 13:16:15;;;;;;;43.73;20.43;;;;;;;;;;4969530;28;20057;-65
2022/10/15 13:18:47;;;;;;;53.70;21.97;;;;;;;;;;4969194;28;20780;-65
2022/10/15 13:21:13;;;;;;;38.67;19.33;;;;;;;;;;4969592;28;20042;-65
2022/10/15 13:23:44;;;;;;;50.60;21.60;;;;;;;;;;4969487;28;20109;-65
2022/10/15 13:26:18;;;;;;;44.93;21.87;;;;;;;;;;4969286;28;20062;-65
2022/10/15 13:28:44;;;;;;;39.77;19.37;;;;;;;;;;4969513;28;20050;-65
2022/10/15 13:31:27;;;;;;;42.93;18.53;;;;;;;;;;4967440;28;20091;-66
2022/10/15 13:33:54;;;;;;;36.42;17.73;;;;;;;;;;4969292;28;20046;-65
2022/10/15 13:36:39;;;;;;;46.23;18.97;;;;;;;;;;4969560;28;20057;-65
2022/10/15 13:39:07;;;;;;;32.63;15.90;;;;;;;;;;4968626;28;20050;-65
2022/10/15 13:41:38;;;;;;;35.77;16.60;;;;;;;;;;4969007;28;20042;-66
2022/10/15 13:44:04;;;;;;;37.77;16.50;;;;;;;;;;4967942;28;20066;-65
2022/10/15 13:46:32;;;;;;;28.13;14.13;;;;;;;;;;4967820;28;20516;-65
2022/10/15 13:49:03;;;;;;;26.47;13.67;;;;;;;;;;4967413;28;20405;-65
2022/10/15 13:51:33;;;;;;;29.67;14.07;;;;;;;;;;4968678;28;20130;-65
2022/10/15 13:54:00;;;;;;;27.57;13.17;;;;;;;;;;4966985;28;20078;-65
2022/10/15 13:56:28;;;;;;;28.53;12.97;;;;;;;;;;4968650;28;20490;-65
2022/10/15 13:58:54;;;;;;;24.90;13.10;;;;;;;;;;4968691;28;20733;-65
2022/10/15 14:01:21;;;;;;;22.93;12.90;;;;;;;;;;4967461;28;20108;-66
2022/10/15 14:03:49;;;;;;;23.00;11.60;;;;;;;;;;4968452;28;20058;-66
2022/10/15 14:06:22;;;;;;;23.17;12.40;;;;;;;;;;4968651;28;20047;-66
2022/10/15 14:08:48;;;;;;;;;;;;;;;;;;4968743;28;20054;-66
2022/10/15 14:11:15;;;;;;;29.47;15.27;;;;;;;;;;4967322;28;20007;-66
2022/10/15 14:13:51;;;;;;;23.53;12.80;;;;;;;;;;4969033;28;20047;-66
2022/10/15 14:16:29;;;;;;;21.30;11.90;;;;;;;;;;4968529;28;20058;-66
2022/10/15 14:18:57;;;;;;;18.33;11.13;;;;;;;;;;4968519;28;20231;-65